Time;durP1;ratioP1;P1;durP2;ratioP2;P2;SDS_P1;SDS_P2;PMS_P1;PMS_P2;Temp;Humidity;BMP_temperature;BMP_pressure;BME280_temperature;BME280_humidity;BME280_pressure;Samples;Min_cycle;Max_cycle;Signal;HPM_P1;HPM_P2
2023/07/21 00:02:25;;;;;;;11.10;5.15;;;;;;;23.48;74.86;94999.66;5021791;28;20222;-80
2023/07/21 00:04:50;;;;;;;8.35;5.00;;;;;;;23.38;75.39;94995.94;5019675;28;20237;-80
2023/07/21 00:07:16;;;;;;;9.32;5.00;;;;;;;23.21;75.95;94992.84;4997156;28;20229;-79
2023/07/21 00:09:42;;;;;;;12.45;5.00;;;;;;;23.26;76.27;94994.69;5020210;28;20229;-79
2023/07/21 00:12:08;;;;;;;9.45;5.28;;;;;;;23.23;76.46;94993.34;5018765;28;20254;-80
2023/07/21 00:14:33;;;;;;;11.00;5.05;;;;;;;23.23;76.74;94996.03;5034911;28;20225;-78
2023/07/21 00:17:01;;;;;;;11.13;5.22;;;;;;;23.32;76.64;94989.03;5007406;28;20588;-81
2023/07/21 00:19:26;;;;;;;11.43;5.00;;;;;;;23.08;77.36;94987.28;5012707;28;20311;-79
2023/07/21 00:21:52;;;;;;;13.88;4.90;;;;;;;23.07;77.48;94991.03;5032216;28;21006;-80
2023/07/21 00:24:18;;;;;;;9.63;4.50;;;;;;;23.19;77.05;94983.50;5030165;28;20267;-80
2023/07/21 00:26:45;;;;;;;8.63;4.90;;;;;;;23.33;76.42;94977.25;5036145;28;20282;-80
2023/07/21 00:29:12;;;;;;;10.18;5.03;;;;;;;23.26;76.56;94973.31;5012445;28;20261;-77
2023/07/21 00:31:38;;;;;;;9.75;4.95;;;;;;;23.18;77.08;94972.00;5026692;28;20253;-80
2023/07/21 00:34:04;;;;;;;9.60;5.18;;;;;;;23.33;76.39;94968.44;5041166;28;20228;-80
2023/07/21 00:36:30;;;;;;;8.70;4.97;;;;;;;23.31;76.57;94974.06;5029343;28;20618;-80
2023/07/21 00:38:58;;;;;;;9.38;4.82;;;;;;;23.20;76.72;94971.72;5018525;28;21064;-80
2023/07/21 00:41:24;;;;;;;11.13;5.20;;;;;;;22.92;78.00;94975.91;5004595;28;20283;-80
2023/07/21 00:43:50;;;;;;;7.10;4.65;;;;;;;23.13;77.06;94964.03;5037442;28;20225;-80
2023/07/21 00:46:15;;;;;;;12.30;5.07;;;;;;;23.44;75.51;94970.81;4995565;28;20255;-81
2023/07/21 00:48:41;;;;;;;9.98;4.50;;;;;;;23.35;76.37;94971.66;5004374;28;20706;-80
2023/07/21 00:51:06;;;;;;;8.80;4.70;;;;;;;23.22;76.47;94970.38;5015655;28;20248;-80
2023/07/21 00:53:33;;;;;;;9.90;4.93;;;;;;;23.03;77.32;94977.44;5017448;28;20232;-79
2023/07/21 00:55:59;;;;;;;7.85;4.80;;;;;;;23.28;76.37;94966.63;5036917;28;20239;-79
2023/07/21 00:58:24;;;;;;;10.15;5.35;;;;;;;23.41;75.07;94962.53;5020648;28;20229;-71
2023/07/21 01:00:50;;;;;;;11.07;5.30;;;;;;;23.65;73.70;94942.03;5005750;28;20233;-72
2023/07/21 01:03:16;;;;;;;9.32;4.95;;;;;;;23.33;75.46;94955.09;5029075;28;20236;-71
2023/07/21 01:05:45;;;;;;;9.18;4.80;;;;;;;23.06;76.62;94949.38;5021518;28;20264;-71
2023/07/21 01:08:11;;;;;;;7.95;4.80;;;;;;;23.02;76.81;94946.47;5022985;28;20910;-70
2023/07/21 01:10:37;;;;;;;10.23;4.90;;;;;;;22.81;77.86;94946.88;4998873;28;20236;-70
2023/07/21 01:13:03;;;;;;;7.55;4.65;;;;;;;22.81;78.05;94934.28;5038980;28;20237;-71
2023/07/21 01:15:28;;;;;;;10.90;5.28;;;;;;;22.85;77.84;94927.34;5018463;28;20816;-71
2023/07/21 01:17:54;;;;;;;10.35;4.70;;;;;;;23.06;76.56;94920.00;5017691;28;20271;-71
2023/07/21 01:20:22;;;;;;;8.65;4.97;;;;;;;22.94;77.12;94920.34;5000548;28;20237;-70
2023/07/21 01:22:53;;;;;;;9.50;4.82;;;;;;;22.94;77.03;94922.22;5036518;28;20248;-70
2023/07/21 01:25:19;;;;;;;8.30;5.00;;;;;;;22.71;78.11;94926.38;5019703;28;20298;-70
2023/07/21 01:27:47;;;;;;;9.95;4.88;;;;;;;22.76;78.02;94923.66;5052145;28;20711;-70
2023/07/21 01:30:14;;;;;;;7.68;4.53;;;;;;;22.95;77.14;94924.59;5035637;28;20232;-70
2023/07/21 01:32:40;;;;;;;7.93;4.95;;;;;;;22.91;77.26;94920.91;5009237;28;20263;-71
2023/07/21 01:35:08;;;;;;;8.82;4.97;;;;;;;22.59;78.64;94931.19;4991163;28;20343;-70
2023/07/21 01:37:37;;;;;;;9.52;4.75;;;;;;;22.75;77.75;94938.06;5013609;28;20241;-71
2023/07/21 01:40:06;;;;;;;7.15;4.88;;;;;;;22.69;78.29;94945.31;5021745;28;20920;-70
2023/07/21 01:42:32;;;;;;;9.20;5.00;;;;;;;22.61;78.56;94943.22;5014671;28;20233;-70
2023/07/21 01:44:57;;;;;;;8.38;5.25;;;;;;;22.71;77.95;94950.38;5016882;28;20313;-69
2023/07/21 01:47:24;;;;;;;9.32;5.00;;;;;;;22.64;78.57;94950.66;5018208;28;20225;-70
2023/07/21 01:49:50;;;;;;;13.40;5.20;;;;;;;22.62;78.28;94966.16;5028883;28;20225;-70
2023/07/21 01:52:16;;;;;;;9.30;5.10;;;;;;;22.86;77.49;94970.84;5032471;28;20848;-70
2023/07/21 01:55:12;;;;;;;9.90;4.90;;;;;;;22.87;77.32;94970.59;5021284;28;20228;-70
2023/07/21 01:57:38;;;;;;;6.72;5.10;;;;;;;22.84;77.37;94963.13;5014006;28;20237;-72
2023/07/21 02:00:07;;;;;;;10.07;5.10;;;;;;;22.67;77.86;94973.31;5021395;28;20239;-71
2023/07/21 02:02:32;;;;;;;11.40;5.05;;;;;;;22.58;78.11;94985.63;5033061;28;20220;-71
2023/07/21 02:04:58;;;;;;;11.20;5.18;;;;;;;22.58;77.91;94994.41;5011931;28;20834;-71
2023/07/21 02:07:24;;;;;;;11.70;5.40;;;;;;;22.57;77.75;94990.16;5006772;28;20235;-71
2023/07/21 02:09:52;;;;;;;10.35;5.00;;;;;;;22.40;78.48;94981.66;5034253;28;20232;-70
2023/07/21 02:12:18;;;;;;;11.63;5.57;;;;;;;22.49;78.07;94977.38;5008478;28;20238;-70
2023/07/21 02:14:43;;;;;;;11.30;5.40;;;;;;;;;;5015671;28;20233;-69
2023/07/21 02:17:09;;;;;;;9.73;5.05;;;;;;;22.80;76.70;94970.09;5050964;28;20241;-70
2023/07/21 02:19:34;;;;;;;6.18;4.85;;;;;;;22.68;77.42;94974.94;5020064;28;20232;-71
2023/07/21 02:22:00;;;;;;;10.73;5.50;;;;;;;22.16;79.55;94972.69;5034818;28;20232;-71
2023/07/21 02:24:26;;;;;;;7.72;5.00;;;;;;;22.41;78.88;94975.25;5011651;28;20260;-70
2023/07/21 02:26:53;;;;;;;10.60;5.07;;;;;;;22.74;77.14;94976.50;5021400;28;20401;-70
2023/07/21 02:29:18;;;;;;;10.60;5.28;;;;;;;22.76;77.05;94972.50;5015150;28;20232;-70
2023/07/21 02:31:45;;;;;;;8.95;5.05;;;;;;;22.57;77.80;94978.69;5031865;28;20229;-70
2023/07/21 02:34:11;;;;;;;10.77;5.03;;;;;;;22.26;79.22;94977.19;5020887;28;20268;-70
2023/07/21 02:36:37;;;;;;;8.15;5.05;;;;;;;22.19;79.75;94966.78;5021819;28;20335;-70
2023/07/21 02:39:02;;;;;;;7.68;5.13;;;;;;;22.46;78.92;94969.13;5012766;28;20230;-72
2023/07/21 02:41:27;;;;;;;11.20;5.07;;;;;;;22.53;78.53;94959.75;4991500;28;20236;-71
2023/07/21 02:43:53;;;;;;;11.02;5.30;;;;;;;22.42;79.01;94962.72;5031966;28;20717;-70
2023/07/21 02:46:18;;;;;;;7.82;4.95;;;;;;;22.35;79.22;94963.03;5022163;28;20530;-70
2023/07/21 02:48:44;;;;;;;12.50;5.75;;;;;;;21.92;81.36;94964.47;5013126;28;20265;-70
2023/07/21 02:51:09;;;;;;;7.80;5.28;;;;;;;22.11;80.82;94967.34;5029438;28;20309;-70
2023/07/21 02:53:35;;;;;;;9.10;5.43;;;;;;;22.18;80.52;94967.88;5003162;28;20237;-71
2023/07/21 02:56:01;;;;;;;13.02;5.50;;;;;;;22.10;80.42;94971.06;5018242;28;20228;-69
2023/07/21 02:58:27;;;;;;;11.82;5.35;;;;;;;22.08;80.68;94965.22;4995579;28;20690;-71
2023/07/21 03:00:55;;;;;;;8.65;5.30;;;;;;;22.07;80.67;94968.94;5024014;28;20826;-70
2023/07/21 03:03:23;;;;;;;9.75;5.55;;;;;;;21.73;82.29;94973.22;5017616;28;20285;-70
2023/07/21 03:05:48;;;;;;;9.80;5.47;;;;;;;21.76;82.18;94972.66;5024614;28;20228;-70
2023/07/21 03:08:14;;;;;;;9.45;5.47;;;;;;;21.64;83.16;94980.94;5006877;28;20749;-70
2023/07/21 03:10:40;;;;;;;8.95;5.43;;;;;;;21.85;82.25;94981.78;5016665;28;20236;-71
2023/07/21 03:13:05;;;;;;;10.13;5.40;;;;;;;21.90;81.80;94973.78;5016212;28;20237;-68
2023/07/21 03:15:31;;;;;;;8.13;5.10;;;;;;;21.82;82.20;94974.28;5051502;28;20222;-71
2023/07/21 03:17:56;;;;;;;9.35;5.43;;;;;;;21.89;81.90;94980.16;5042886;28;20263;-71
2023/07/21 03:20:22;;;;;;;12.30;5.50;;;;;;;21.59;82.93;94982.81;5053318;28;20245;-71
2023/07/21 03:22:47;;;;;;;10.65;5.55;;;;;;;21.69;82.62;94978.28;5040708;28;20232;-71
2023/07/21 03:25:13;;;;;;;10.45;5.72;;;;;;;21.46;84.20;94989.47;5008220;28;20229;-70
2023/07/21 03:27:39;;;;;;;7.82;4.90;;;;;;;21.55;84.04;94987.88;5026122;28;20224;-71
2023/07/21 03:30:06;;;;;;;12.38;6.00;;;;;;;21.69;83.12;94999.59;5020202;28;20798;-70
2023/07/21 03:32:32;;;;;;;11.38;5.60;;;;;;;21.86;82.35;94999.34;5016450;28;20738;-71
2023/07/21 03:34:57;;;;;;;9.07;5.20;;;;;;;22.03;81.47;94992.69;5000243;28;20233;-71
2023/07/21 03:37:23;;;;;;;10.63;5.93;;;;;;;21.92;81.79;95000.97;5021585;28;20256;-70
2023/07/21 03:39:49;;;;;;;12.10;5.88;;;;;;;21.64;83.33;94996.16;5033892;28;20746;-70
2023/07/21 03:42:14;;;;;;;10.10;5.45;;;;;;;21.88;82.29;95010.53;5044210;28;20220;-71
2023/07/21 03:44:40;;;;;;;9.32;5.85;;;;;;;22.03;81.75;95006.00;5017868;28;20233;-71
2023/07/21 03:47:05;;;;;;;11.38;5.88;;;;;;;22.05;81.45;95009.22;5035753;28;20259;-71
2023/07/21 03:49:31;;;;;;;12.75;5.90;;;;;;;21.78;83.04;95007.88;5020019;28;21079;-71
2023/07/21 03:51:57;;;;;;;10.73;5.78;;;;;;;21.78;83.10;95011.31;5037076;28;20225;-71
2023/07/21 03:54:22;;;;;;;9.55;5.72;;;;;;;21.95;82.39;95013.72;5021856;28;21262;-71
2023/07/21 03:56:48;;;;;;;9.73;6.15;;;;;;;21.92;82.11;95014.28;5020135;28;20758;-71
2023/07/21 03:59:13;;;;;;;11.90;6.50;;;;;;;21.87;82.71;95022.28;5035584;28;20229;-71
2023/07/21 04:01:39;;;;;;;11.25;6.10;;;;;;;21.91;82.46;95023.34;5022231;28;20228;-70
2023/07/21 04:04:05;;;;;;;12.10;6.07;;;;;;;21.89;82.70;95028.94;5005985;28;20240;-70
2023/07/21 04:06:30;;;;;;;14.77;6.60;;;;;;;21.77;82.90;95033.72;5040086;28;20233;-71
2023/07/21 04:08:57;;;;;;;12.98;6.70;;;;;;;21.83;82.51;95029.19;5048752;28;20233;-71
2023/07/21 04:11:25;;;;;;;14.30;6.40;;;;;;;21.89;82.29;95034.28;5033935;28;20230;-71
2023/07/21 04:13:51;;;;;;;13.65;6.60;;;;;;;21.88;82.49;95038.00;5006019;28;20323;-72
2023/07/21 04:16:17;;;;;;;15.25;6.85;;;;;;;21.91;81.60;95034.00;5014425;28;20687;-71
2023/07/21 04:18:42;;;;;;;12.85;6.70;;;;;;;22.07;80.70;95030.25;5052353;28;20730;-71
2023/07/21 04:21:07;;;;;;;14.02;6.82;;;;;;;22.03;81.45;95034.53;5052006;28;21017;-70
2023/07/21 04:23:34;;;;;;;17.02;6.57;;;;;;;22.19;80.35;95036.09;5029457;28;20229;-70
2023/07/21 04:26:00;;;;;;;13.88;6.47;;;;;;;22.18;80.70;95041.72;5017953;28;20233;-70
2023/07/21 04:28:25;;;;;;;13.13;6.43;;;;;;;22.24;80.22;95037.97;5029602;28;20239;-69
2023/07/21 04:30:54;;;;;;;12.40;6.40;;;;;;;22.33;79.61;95045.16;5015608;28;20582;-68
2023/07/21 04:33:19;;;;;;;12.55;6.68;;;;;;;22.27;80.01;95046.25;5033960;28;20748;-70
2023/07/21 04:35:48;;;;;;;10.52;6.57;;;;;;;21.69;82.87;95044.88;5030598;28;20233;-69
2023/07/21 04:38:14;;;;;;;12.27;6.90;;;;;;;21.53;84.45;95037.13;5016596;28;20998;-70
2023/07/21 04:40:44;;;;;;;13.98;7.07;;;;;;;21.59;84.20;95036.09;5015921;28;20289;-68
2023/07/21 04:43:11;;;;;;;11.57;6.88;;;;;;;21.92;82.92;95033.75;5009677;28;20233;-69
2023/07/21 04:45:40;;;;;;;17.33;7.20;;;;;;;22.08;81.93;95035.34;5035621;28;20217;-70
2023/07/21 04:48:06;;;;;;;16.65;7.07;;;;;;;22.08;82.01;95031.88;5017084;28;20291;-70
2023/07/21 04:50:31;;;;;;;15.02;7.13;;;;;;;22.10;82.14;95037.72;5035906;28;20680;-69
2023/07/21 04:52:57;;;;;;;13.95;7.30;;;;;;;22.37;80.32;95034.75;5029145;28;20233;-71
2023/07/21 04:55:23;;;;;;;17.08;6.90;;;;;;;22.60;80.19;95034.16;5036536;28;20257;-71
2023/07/21 04:57:49;;;;;;;13.23;6.72;;;;;;;22.35;80.92;95037.72;4997731;28;20327;-71
2023/07/21 05:00:15;;;;;;;12.70;7.15;;;;;;;22.49;80.49;95043.28;5051171;28;20282;-71
2023/07/21 05:02:40;;;;;;;16.15;7.10;;;;;;;22.46;80.73;95039.28;5048233;28;20235;-70
2023/07/21 05:05:07;;;;;;;13.80;7.15;;;;;;;22.70;79.97;95039.50;5049786;28;20804;-70
2023/07/21 05:07:33;;;;;;;15.95;6.90;;;;;;;22.93;79.12;95043.44;5050662;28;20225;-71
2023/07/21 05:09:58;;;;;;;11.30;7.28;;;;;;;23.01;78.80;95042.88;5033008;28;20230;-71
2023/07/21 05:12:25;;;;;;;15.23;7.68;;;;;;;23.81;74.78;95042.41;5026254;28;20236;-71
2023/07/21 05:14:51;;;;;;;13.20;7.40;;;;;;;23.79;74.47;95051.78;4999170;28;20230;-71
2023/07/21 05:17:17;;;;;;;18.73;7.85;;;;;;;23.55;74.97;95054.34;5036392;28;20237;-70
2023/07/21 05:19:44;;;;;;;14.88;7.60;;;;;;;24.21;72.93;95053.91;5051679;28;20339;-70
2023/07/21 05:22:09;;;;;;;15.05;8.00;;;;;;;24.13;72.57;95055.31;5051056;28;20240;-71
2023/07/21 05:24:35;;;;;;;13.02;8.07;;;;;;;23.74;74.30;95052.63;5032610;28;20636;-71
2023/07/21 05:27:00;;;;;;;11.85;7.88;;;;;;;23.72;74.90;95052.09;5019769;28;20229;-71
2023/07/21 05:29:26;;;;;;;11.02;6.82;;;;;;;23.66;75.94;95045.22;5031751;28;20237;-71
2023/07/21 05:31:52;;;;;;;14.32;7.25;;;;;;;23.79;75.22;95047.25;5000374;28;20257;-70
2023/07/21 05:34:18;;;;;;;12.98;7.03;;;;;;;24.45;72.98;95057.44;5033591;28;20225;-70
2023/07/21 05:36:43;;;;;;;15.75;7.50;;;;;;;24.51;72.20;95050.94;4999940;28;20673;-71
2023/07/21 05:39:09;;;;;;;16.08;7.43;;;;;;;24.31;72.76;95056.50;4998716;28;20319;-71
2023/07/21 05:41:34;;;;;;;16.80;7.50;;;;;;;24.27;72.77;95056.25;5034184;28;20221;-70
2023/07/21 05:43:59;;;;;;;13.95;7.78;;;;;;;24.20;73.57;95060.31;5014291;28;20233;-69
2023/07/21 05:46:25;;;;;;;17.70;8.13;;;;;;;24.05;74.49;95059.34;5029355;28;20237;-69
2023/07/21 05:48:51;;;;;;;15.20;8.20;;;;;;;23.89;75.77;95057.88;5015130;28;20225;-70
2023/07/21 05:51:17;;;;;;;16.50;8.32;;;;;;;23.77;76.23;95062.78;5023853;28;20225;-70
2023/07/21 05:53:43;;;;;;;13.48;8.20;;;;;;;23.78;75.93;95067.06;5016704;28;20230;-71
2023/07/21 05:56:11;;;;;;;16.60;8.48;;;;;;;23.91;75.96;95061.06;4994789;28;20621;-70
2023/07/21 05:58:36;;;;;;;16.05;7.72;;;;;;;23.91;75.44;95065.59;5038546;28;20232;-71
2023/07/21 06:01:02;;;;;;;18.40;8.70;;;;;;;23.84;75.40;95065.13;5033444;28;20706;-68
2023/07/21 06:03:28;;;;;;;18.48;8.18;;;;;;;24.00;75.76;95071.97;5018511;28;20697;-72
2023/07/21 06:05:53;;;;;;;17.73;8.70;;;;;;;23.96;75.72;95071.72;5035440;28;20279;-71
2023/07/21 06:08:19;;;;;;;17.35;8.13;;;;;;;24.09;75.10;95060.44;5018740;28;20632;-70
2023/07/21 06:10:44;;;;;;;18.30;8.10;;;;;;;24.19;75.01;95058.75;5035722;28;20236;-70
2023/07/21 06:13:10;;;;;;;16.95;8.40;;;;;;;24.28;74.46;95068.56;5021730;28;20225;-71
2023/07/21 06:15:36;;;;;;;16.02;7.40;;;;;;;24.34;74.58;95063.94;5033067;28;20244;-70
2023/07/21 06:18:05;;;;;;;19.17;8.48;;;;;;;24.37;74.73;95053.50;4994718;28;20226;-70
2023/07/21 06:20:34;;;;;;;17.80;7.68;;;;;;;24.47;74.84;95052.59;5012779;28;20785;-71
2023/07/21 06:23:01;;;;;;;21.52;7.68;;;;;;;24.49;74.50;95053.09;5002462;28;20339;-69
2023/07/21 06:25:26;;;;;;;12.07;7.63;;;;;;;24.56;73.96;95050.88;5015411;28;20766;-70
2023/07/21 06:27:52;;;;;;;14.73;8.07;;;;;;;24.54;74.43;95047.69;5031577;28;20340;-70
2023/07/21 06:30:20;;;;;;;13.98;7.78;;;;;;;24.58;74.45;95051.41;5014462;28;20244;-71
2023/07/21 06:32:45;;;;;;;14.65;8.20;;;;;;;24.62;72.67;95041.75;5032898;28;20242;-71
2023/07/21 06:35:13;;;;;;;23.35;8.02;;;;;;;24.68;72.96;95035.22;5048436;28;20267;-71
2023/07/21 06:37:41;;;;;;;15.75;8.07;;;;;;;24.72;72.35;95041.59;5054118;28;20237;-72
2023/07/21 06:40:09;;;;;;;17.35;8.02;;;;;;;24.77;72.13;95040.81;5034494;28;20233;-71
2023/07/21 06:42:35;;;;;;;19.55;8.68;;;;;;;24.69;71.64;95040.28;5015444;28;20222;-71
2023/07/21 06:45:01;;;;;;;16.88;8.45;;;;;;;24.59;72.12;95040.44;5028364;28;20229;-71
2023/07/21 06:47:27;;;;;;;18.05;7.88;;;;;;;24.78;72.28;95040.50;5050414;28;20320;-70
2023/07/21 06:49:52;;;;;;;18.67;7.68;;;;;;;24.84;72.09;95044.72;5048953;28;20232;-72
2023/07/21 06:52:18;;;;;;;17.27;8.20;;;;;;;24.88;71.80;95056.47;5053822;28;20239;-71
2023/07/21 06:54:44;;;;;;;16.60;7.95;;;;;;;24.90;71.57;95051.63;5012912;28;20233;-70
2023/07/21 06:57:10;;;;;;;14.70;7.45;;;;;;;24.94;70.77;95049.97;4998455;28;20765;-70
2023/07/21 06:59:36;;;;;;;13.65;7.57;;;;;;;24.95;70.78;95048.09;5012512;28;20287;-72
2023/07/21 07:02:01;;;;;;;16.35;7.75;;;;;;;25.09;70.78;95047.13;5017986;28;20229;-71
2023/07/21 07:04:27;;;;;;;15.95;7.88;;;;;;;25.19;70.87;95040.84;5034972;28;20237;-71
2023/07/21 07:06:55;;;;;;;14.15;7.80;;;;;;;25.35;69.61;95047.56;5009664;28;20214;-70
2023/07/21 07:09:24;;;;;;;15.30;7.72;;;;;;;25.39;71.00;95046.72;5036170;28;20238;-71
2023/07/21 07:11:50;;;;;;;13.65;7.40;;;;;;;25.39;69.63;95040.53;5011361;28;20219;-70
2023/07/21 07:14:16;;;;;;;18.33;7.50;;;;;;;25.39;69.32;95046.72;4993990;28;20232;-70
2023/07/21 07:16:52;;;;;;;13.77;7.70;;;;;;;25.29;68.35;95046.84;5002346;28;20226;-72
2023/07/21 07:19:19;;;;;;;15.20;7.55;;;;;;;25.43;67.84;95039.69;5023822;28;20248;-72
2023/07/21 07:21:47;;;;;;;17.80;8.00;;;;;;;25.52;67.66;95045.22;5001765;28;20237;-72
2023/07/21 07:24:13;;;;;;;14.20;7.47;;;;;;;25.66;68.05;95042.63;4990432;28;20272;-72
2023/07/21 07:26:39;;;;;;;16.38;7.80;;;;;;;25.80;67.76;95032.75;5031511;28;20246;-72
2023/07/21 07:29:04;;;;;;;13.70;7.55;;;;;;;25.87;68.37;95038.53;5033033;28;20229;-71
2023/07/21 07:31:30;;;;;;;14.63;7.82;;;;;;;25.89;66.99;95039.84;5035887;28;20263;-72
2023/07/21 07:33:59;;;;;;;19.85;8.75;;;;;;;25.93;66.65;95032.81;5031744;28;20894;-72
2023/07/21 07:36:24;;;;;;;17.42;7.55;;;;;;;26.06;67.31;95033.94;5015129;28;20230;-70
2023/07/21 07:38:50;;;;;;;19.80;7.90;;;;;;;26.11;66.05;95035.78;5032184;28;20287;-71
2023/07/21 07:41:15;;;;;;;16.77;7.28;;;;;;;26.07;65.91;95028.31;5029041;28;20237;-71
2023/07/21 07:43:40;;;;;;;17.50;7.35;;;;;;;26.30;65.70;95028.47;5009465;28;20233;-71
2023/07/21 07:46:07;;;;;;;16.40;7.50;;;;;;;26.43;64.59;95027.72;5014577;28;20243;-72
2023/07/21 07:48:36;;;;;;;10.68;7.18;;;;;;;26.41;64.39;95024.53;5032290;28;20300;-72
2023/07/21 07:51:05;;;;;;;13.85;6.95;;;;;;;26.42;64.80;95026.91;5019052;28;20230;-71
2023/07/21 07:53:31;;;;;;;13.63;6.63;;;;;;;26.48;65.06;95024.94;5015460;28;20308;-70
2023/07/21 07:55:57;;;;;;;14.20;6.70;;;;;;;26.48;64.25;95025.75;5032017;28;20239;-70
2023/07/21 07:58:22;;;;;;;18.95;7.03;;;;;;;26.54;62.93;95034.47;5017060;28;20242;-71
2023/07/21 08:00:48;;;;;;;13.90;7.15;;;;;;;26.55;62.60;95028.03;5017432;28;20255;-70
2023/07/21 08:03:13;;;;;;;35.33;7.38;;;;;;;26.58;62.34;95030.13;5051182;28;20229;-70
2023/07/21 08:05:39;;;;;;;24.30;7.10;;;;;;;26.70;62.82;95027.75;5011926;28;20227;-72
2023/07/21 08:08:06;;;;;;;15.07;7.05;;;;;;;26.87;62.61;95027.19;5012244;28;20223;-71
2023/07/21 08:10:31;;;;;;;18.08;6.53;;;;;;;27.09;62.23;95030.75;5010317;28;20238;-71
2023/07/21 08:12:58;;;;;;;12.35;6.80;;;;;;;26.96;58.75;95036.94;5013784;28;20257;-69
2023/07/21 08:15:23;;;;;;;15.00;6.40;;;;;;;27.06;59.91;95027.88;5000232;28;20226;-73
2023/07/21 08:17:52;;;;;;;17.95;6.47;;;;;;;27.07;60.21;95026.78;5020996;28;20324;-71
2023/07/21 08:20:18;;;;;;;11.25;6.30;;;;;;;27.28;60.90;95026.06;5006957;28;20351;-71
2023/07/21 08:22:47;;;;;;;17.00;6.57;;;;;;;27.36;60.30;95024.56;5010308;28;20797;-71
2023/07/21 08:25:13;;;;;;;12.68;6.28;;;;;;;27.45;58.14;95030.84;4992447;28;20237;-70
2023/07/21 08:27:39;;;;;;;13.52;6.20;;;;;;;27.56;58.01;95032.19;4984933;28;20235;-72
2023/07/21 08:30:05;;;;;;;13.57;6.00;;;;;;;27.60;57.96;95027.81;5005666;28;20226;-69
2023/07/21 08:32:30;;;;;;;18.05;6.18;;;;;;;27.68;58.09;95029.00;4997892;28;20857;-72
2023/07/21 08:34:56;;;;;;;11.48;6.10;;;;;;;27.72;56.40;95028.06;4990740;28;20237;-70
2023/07/21 08:37:22;;;;;;;11.85;6.00;;;;;;;27.81;57.46;95030.81;5014550;28;20230;-71
2023/07/21 08:39:48;;;;;;;15.10;5.95;;;;;;;27.68;56.27;95031.69;4995500;28;20234;-71
2023/07/21 08:42:13;;;;;;;12.93;5.80;;;;;;;27.90;54.61;95021.72;4999171;28;20285;-70
2023/07/21 08:44:39;;;;;;;13.18;5.50;;;;;;;28.03;53.91;95025.50;4996418;28;20226;-71
2023/07/21 08:47:05;;;;;;;11.93;5.38;;;;;;;28.16;52.63;95021.94;4997306;28;20227;-70
2023/07/21 08:49:30;;;;;;;9.55;5.13;;;;;;;28.46;51.97;95034.63;5006506;28;20293;-71
2023/07/21 08:51:56;;;;;;;10.27;5.07;;;;;;;28.56;51.84;95025.50;4974322;28;20229;-72
2023/07/21 08:54:21;;;;;;;14.60;5.43;;;;;;;28.61;51.68;95028.88;4994672;28;20238;-70
2023/07/21 08:56:47;;;;;;;12.45;5.45;;;;;;;28.72;50.94;95034.78;5011376;28;20223;-71
2023/07/21 08:59:12;;;;;;;11.18;4.97;;;;;;;28.70;49.74;95026.22;5007926;28;20627;-71
2023/07/21 09:01:38;;;;;;;17.17;5.32;;;;;;;28.69;49.82;95030.81;4984492;28;20234;-71
2023/07/21 09:04:15;;;;;;;14.07;5.15;;;;;;;28.62;49.46;95029.66;5013552;28;20223;-71
2023/07/21 09:06:41;;;;;;;17.52;5.28;;;;;;;28.72;49.74;95025.91;4996357;28;20630;-72
2023/07/21 09:09:06;;;;;;;14.23;5.38;;;;;;;28.59;50.90;95030.25;5001509;28;20260;-71
2023/07/21 09:11:34;;;;;;;13.98;5.50;;;;;;;28.74;51.42;95021.78;4995987;28;20285;-71
2023/07/21 09:14:00;;;;;;;11.50;5.25;;;;;;;28.97;49.10;95033.31;5002231;28;20231;-70
2023/07/21 09:16:25;;;;;;;11.70;5.00;;;;;;;29.04;50.32;95026.34;5015060;28;20245;-71
2023/07/21 09:18:52;;;;;;;13.98;5.18;;;;;;;29.01;48.32;95020.78;5025173;28;20256;-72
2023/07/21 09:21:21;;;;;;;10.45;5.10;;;;;;;29.15;49.57;95018.78;5018962;28;20313;-71
2023/07/21 09:23:49;;;;;;;11.32;5.30;;;;;;;29.28;49.55;95021.34;5005570;28;20225;-70
2023/07/21 09:26:22;;;;;;;11.95;5.82;;;;;;;29.34;47.47;95022.00;5000743;28;20317;-70
2023/07/21 09:28:47;;;;;;;13.05;5.38;;;;;;;29.26;48.96;95009.28;5030046;28;20241;-70
2023/07/21 09:31:13;;;;;;;12.93;4.97;;;;;;;29.42;48.97;94999.66;5025835;28;20306;-71
2023/07/21 09:33:40;;;;;;;10.18;5.22;;;;;;;29.56;48.93;95005.72;5028458;28;20317;-72
2023/07/21 09:36:06;;;;;;;11.48;5.25;;;;;;;29.81;49.06;95010.34;5031339;28;20233;-71
2023/07/21 09:38:33;;;;;;;9.60;5.43;;;;;;;29.90;49.69;95013.06;5033010;28;20242;-71
2023/07/21 09:41:05;;;;;;;13.98;6.30;;;;;;;29.89;47.53;95000.66;5009753;28;20648;-71
2023/07/21 09:43:31;;;;;;;10.63;5.47;;;;;;;29.97;47.87;95000.63;5030311;28;20270;-71
2023/07/21 09:45:59;;;;;;;13.48;5.57;;;;;;;29.95;47.04;94997.47;5027926;28;20738;-71
2023/07/21 09:48:26;;;;;;;12.50;5.45;;;;;;;29.85;47.95;95005.88;5034406;28;20244;-72
2023/07/21 09:50:51;;;;;;;13.20;5.38;;;;;;;30.02;48.29;94991.59;4997922;28;20233;-71
2023/07/21 09:53:20;;;;;;;9.60;5.63;;;;;;;30.02;48.13;94997.00;5046122;28;20234;-71
2023/07/21 09:55:45;;;;;;;9.70;5.72;;;;;;;30.17;48.90;94992.97;4996001;28;20226;-71
2023/07/21 09:58:11;;;;;;;13.25;5.70;;;;;;;30.32;46.11;94992.47;4999745;28;20248;-72
2023/07/21 10:00:39;;;;;;;11.23;5.80;;;;;;;30.40;47.69;95003.28;5012737;28;20233;-70
2023/07/21 10:03:05;;;;;;;14.18;5.90;;;;;;;30.28;46.59;94997.75;5048529;28;20792;-72
2023/07/21 10:05:31;;;;;;;14.57;6.30;;;;;;;30.34;47.37;94991.06;5018224;28;20939;-71
2023/07/21 10:07:57;;;;;;;12.00;5.63;;;;;;;30.41;47.64;94987.88;4988940;28;20222;-73
2023/07/21 10:10:23;;;;;;;11.70;5.90;;;;;;;30.62;47.95;94986.84;5010633;28;21189;-71
2023/07/21 10:12:51;;;;;;;16.48;6.03;;;;;;;30.67;46.85;94985.88;5028693;28;20288;-70
2023/07/21 10:15:19;;;;;;;13.90;5.50;;;;;;;30.86;47.27;94993.59;5034998;28;20769;-72
2023/07/21 10:18:04;;;;;;;13.15;5.80;;;;;;;31.06;48.11;94990.19;5041149;28;20251;-70
2023/07/21 10:20:39;;;;;;;16.92;5.70;;;;;;;31.16;45.95;94990.63;5015177;28;20722;-72
2023/07/21 10:23:05;;;;;;;15.63;5.70;;;;;;;31.15;44.37;94986.31;5026644;28;20603;-69
2023/07/21 10:25:52;;;;;;;15.88;5.90;;;;;;;31.23;44.47;94990.09;5033295;28;20221;-71
2023/07/21 10:28:34;;;;;;;18.08;7.82;;;;;;;31.21;44.67;94979.59;5031483;28;20229;-71
2023/07/21 10:31:21;;;;;;;14.57;5.50;;;;;;;31.28;44.65;94989.91;5034053;28;20235;-71
2023/07/21 10:34:14;;;;;;;15.65;5.70;;;;;;;31.44;44.74;94987.44;5034274;28;20237;-72
2023/07/21 10:36:50;;;;;;;11.25;5.93;;;;;;;31.46;44.55;94982.47;5008305;28;20233;-71
2023/07/21 10:39:19;;;;;;;11.48;5.43;;;;;;;31.44;44.24;94976.59;5013840;28;20240;-71
2023/07/21 10:41:48;;;;;;;11.98;5.57;;;;;;;31.48;43.89;94972.91;4996542;28;20240;-72
2023/07/21 10:44:14;;;;;;;13.70;5.65;;;;;;;31.59;42.77;94971.41;5004673;28;20241;-71
2023/07/21 10:46:43;;;;;;;13.13;5.90;;;;;;;31.76;44.12;94973.97;5018315;28;20228;-71
2023/07/21 10:49:09;;;;;;;18.35;5.80;;;;;;;31.87;43.70;94980.56;5014292;28;20236;-72
2023/07/21 10:51:35;;;;;;;11.88;5.65;;;;;;;31.91;41.24;94959.00;5030206;28;20225;-72
2023/07/21 10:54:00;;;;;;;14.20;5.72;;;;;;;31.95;42.26;94966.16;5002135;28;20285;-71
2023/07/21 10:56:27;;;;;;;17.02;5.88;;;;;;;32.00;41.95;94967.09;4998668;28;20286;-71
2023/07/21 10:58:52;;;;;;;10.95;5.65;;;;;;;32.02;43.39;94970.25;5038762;28;20225;-72
2023/07/21 11:01:21;;;;;;;11.60;6.20;;;;;;;31.90;42.82;94958.25;5017837;28;20290;-71
2023/07/21 11:03:48;;;;;;;16.17;6.22;;;;;;;32.05;44.19;94966.91;5030641;28;21039;-73
2023/07/21 11:06:13;;;;;;;14.27;5.55;;;;;;;32.14;41.71;94962.19;5028660;28;20267;-71
2023/07/21 11:08:39;;;;;;;11.25;5.75;;;;;;;32.17;42.67;94956.09;4998407;28;20229;-71
2023/07/21 11:11:04;;;;;;;15.98;6.38;;;;;;;32.22;42.69;94953.94;5030540;28;20221;-71
2023/07/21 11:13:30;;;;;;;15.02;5.90;;;;;;;32.32;42.20;94952.72;5014904;28;20243;-72
2023/07/21 11:15:55;;;;;;;11.82;5.75;;;;;;;32.30;41.82;94949.56;5001450;28;20224;-72
2023/07/21 11:18:21;;;;;;;12.77;5.90;;;;;;;32.35;43.53;94949.34;5017746;28;20237;-72
2023/07/21 11:20:53;;;;;;;12.20;5.70;;;;;;;32.33;41.34;94948.91;5019526;28;20335;-72
2023/07/21 11:23:20;;;;;;;11.73;5.82;;;;;;;32.27;39.69;94944.81;5021147;28;20240;-71
2023/07/21 11:26:11;;;;;;;14.95;7.10;;;;;;;32.30;40.14;94947.66;5017824;28;20254;-70